<?xml version='1.0' encoding='UTF-8'?><gpx version="1.1" creator="JPX - https://github.com/jenetics/jpx" xmlns="http://www.topografix.com/GPX/1/1"><trk><trkseg><trkpt lat="38.2591812" lon="15.4672755"><ele>17.0</ele><time>2026-04-08T07:27:55.006Z</time></trkpt><trkpt lat="38.2591251" lon="15.4673146"><ele>17.0</ele><time>2026-04-08T07:27:59.007Z</time></trkpt><trkpt lat="38.2590372" lon="15.4673366"><ele>17.0</ele><time>2026-04-08T07:28:02.006Z</time></trkpt><trkpt lat="38.2589361" lon="15.4673295"><ele>17.0</ele><time>2026-04-08T07:28:04.006Z</time></trkpt><trkpt lat="38.2588078" lon="15.4673075"><ele>17.0</ele><time>2026-04-08T07:28:06.006Z</time></trkpt><trkpt lat="38.258735" lon="15.4672937"><ele>17.666666666666668</ele><time>2026-04-08T07:28:07.006Z</time></trkpt><trkpt lat="38.2586549" lon="15.4672748"><ele>18.333333333333336</ele><time>2026-04-08T07:28:08.006Z</time></trkpt><trkpt lat="38.2585794" lon="15.4672486"><ele>19.0</ele><time>2026-04-08T07:28:09.007Z</time></trkpt><trkpt lat="38.2585002" lon="15.4672148"><ele>19.666666666666668</ele><time>2026-04-08T07:28:10.007Z</time></trkpt><trkpt lat="38.2584124" lon="15.4671847"><ele>20.333333333333332</ele><time>2026-04-08T07:28:11.006Z</time></trkpt><trkpt lat="38.258315" lon="15.4671598"><ele>21.0</ele><time>2026-04-08T07:28:12.006Z</time></trkpt><trkpt lat="38.2582122" lon="15.4671296"><ele>20.8</ele><time>2026-04-08T07:28:13.006Z</time></trkpt><trkpt lat="38.258121" lon="15.4671074"><ele>20.6</ele><time>2026-04-08T07:28:14.005Z</time></trkpt><trkpt lat="38.2580277" lon="15.4670975"><ele>20.4</ele><time>2026-04-08T07:28:15.006Z</time></trkpt><trkpt lat="38.2579271" lon="15.4671056"><ele>20.2</ele><time>2026-04-08T07:28:16.007Z</time></trkpt><trkpt lat="38.2578267" lon="15.467128"><ele>20.0</ele><time>2026-04-08T07:28:17.006Z</time></trkpt><trkpt lat="38.2577289" lon="15.467157"><ele>20.0</ele><time>2026-04-08T07:28:18.007Z</time></trkpt><trkpt lat="38.2576313" lon="15.4671924"><ele>20.0</ele><time>2026-04-08T07:28:19.007Z</time></trkpt><trkpt lat="38.2575371" lon="15.467222"><ele>20.0</ele><time>2026-04-08T07:28:20.006Z</time></trkpt><trkpt lat="38.257444" lon="15.4672444"><ele>20.0</ele><time>2026-04-08T07:28:21.006Z</time></trkpt><trkpt lat="38.2573448" lon="15.4672876"><ele>20.0</ele><time>2026-04-08T07:28:22.006Z</time></trkpt><trkpt lat="38.2572538" lon="15.4673395"><ele>21.0</ele><time>2026-04-08T07:28:23.006Z</time></trkpt><trkpt lat="38.2571619" lon="15.4674028"><ele>22.0</ele><time>2026-04-08T07:28:24.006Z</time></trkpt><trkpt lat="38.2570752" lon="15.4674588"><ele>23.0</ele><time>2026-04-08T07:28:25.007Z</time></trkpt><trkpt lat="38.2569918" lon="15.4675152"><ele>24.0</ele><time>2026-04-08T07:28:26.007Z</time></trkpt><trkpt lat="38.2569161" lon="15.467567"><ele>25.0</ele><time>2026-04-08T07:28:27.007Z</time></trkpt><trkpt lat="38.2568472" lon="15.467622"><ele>25.0</ele><time>2026-04-08T07:28:28.007Z</time></trkpt><trkpt lat="38.256779" lon="15.4676883"><ele>25.0</ele><time>2026-04-08T07:28:29.007Z</time></trkpt><trkpt lat="38.2567089" lon="15.4677657"><ele>25.0</ele><time>2026-04-08T07:28:30.007Z</time></trkpt><trkpt lat="38.2566374" lon="15.4678485"><ele>25.0</ele><time>2026-04-08T07:28:31.007Z</time></trkpt><trkpt lat="38.2565699" lon="15.4679323"><ele>25.0</ele><time>2026-04-08T07:28:32.005Z</time></trkpt><trkpt lat="38.2565029" lon="15.4680135"><ele>25.2</ele><time>2026-04-08T07:28:33.006Z</time></trkpt><trkpt lat="38.2564356" lon="15.4681007"><ele>25.4</ele><time>2026-04-08T07:28:34.007Z</time></trkpt><trkpt lat="38.2563653" lon="15.4682003"><ele>25.6</ele><time>2026-04-08T07:28:35.006Z</time></trkpt><trkpt lat="38.2562992" lon="15.4682966"><ele>25.8</ele><time>2026-04-08T07:28:36.005Z</time></trkpt><trkpt lat="38.2562274" lon="15.4683965"><ele>26.0</ele><time>2026-04-08T07:28:37.007Z</time></trkpt><trkpt lat="38.2561492" lon="15.4684848"><ele>26.0</ele><time>2026-04-08T07:28:38.006Z</time></trkpt><trkpt lat="38.2560704" lon="15.4685606"><ele>26.0</ele><time>2026-04-08T07:28:39.006Z</time></trkpt><trkpt lat="38.2559825" lon="15.4686383"><ele>26.0</ele><time>2026-04-08T07:28:40.006Z</time></trkpt><trkpt lat="38.2558903" lon="15.4687147"><ele>26.0</ele><time>2026-04-08T07:28:41.007Z</time></trkpt><trkpt lat="38.2558004" lon="15.4687889"><ele>26.0</ele><time>2026-04-08T07:28:42.005Z</time></trkpt><trkpt lat="38.2557186" lon="15.4688581"><ele>26.166666666666664</ele><time>2026-04-08T07:28:43.006Z</time></trkpt><trkpt lat="38.2556355" lon="15.4689143"><ele>26.333333333333332</ele><time>2026-04-08T07:28:44.006Z</time></trkpt><trkpt lat="38.2555392" lon="15.4689583"><ele>26.5</ele><time>2026-04-08T07:28:45.006Z</time></trkpt><trkpt lat="38.2554494" lon="15.4689964"><ele>26.666666666666664</ele><time>2026-04-08T07:28:46.006Z</time></trkpt><trkpt lat="38.2553734" lon="15.4690276"><ele>26.833333333333332</ele><time>2026-04-08T07:28:47.005Z</time></trkpt><trkpt lat="38.2553087" lon="15.469053"><ele>27.0</ele><time>2026-04-08T07:28:48.005Z</time></trkpt><trkpt lat="38.255197" lon="15.4690881"><ele>27.75</ele><time>2026-04-08T07:28:50.006Z</time></trkpt><trkpt lat="38.2551014" lon="15.4691215"><ele>28.5</ele><time>2026-04-08T07:28:52.007Z</time></trkpt><trkpt lat="38.2550145" lon="15.4691901"><ele>29.25</ele><time>2026-04-08T07:28:54.005Z</time></trkpt><trkpt lat="38.2549318" lon="15.4693036"><ele>30.0</ele><time>2026-04-08T07:28:56.006Z</time></trkpt><trkpt lat="38.2548508" lon="15.4694459"><ele>30.0</ele><time>2026-04-08T07:28:58.006Z</time></trkpt><trkpt lat="38.254796" lon="15.4695364"><ele>30.0</ele><time>2026-04-08T07:28:59.006Z</time></trkpt><trkpt lat="38.2547368" lon="15.4696183"><ele>30.0</ele><time>2026-04-08T07:29:00.006Z</time></trkpt><trkpt lat="38.2546739" lon="15.4696814"><ele>30.0</ele><time>2026-04-08T07:29:01.006Z</time></trkpt><trkpt lat="38.2546028" lon="15.4697307"><ele>30.0</ele><time>2026-04-08T07:29:02.007Z</time></trkpt><trkpt lat="38.2545374" lon="15.4697569"><ele>30.0</ele><time>2026-04-08T07:29:03.006Z</time></trkpt><trkpt lat="38.2544503" lon="15.4697724"><ele>30.6</ele><time>2026-04-08T07:29:04.006Z</time></trkpt><trkpt lat="38.2543517" lon="15.4697854"><ele>31.2</ele><time>2026-04-08T07:29:05.006Z</time></trkpt><trkpt lat="38.2542492" lon="15.4698056"><ele>31.799999999999997</ele><time>2026-04-08T07:29:06.006Z</time></trkpt><trkpt lat="38.2541456" lon="15.4698343"><ele>32.4</ele><time>2026-04-08T07:29:07.006Z</time></trkpt><trkpt lat="38.2540353" lon="15.4698753"><ele>33.0</ele><time>2026-04-08T07:29:08.007Z</time></trkpt><trkpt lat="38.2539229" lon="15.4699246"><ele>34.75</ele><time>2026-04-08T07:29:09.007Z</time></trkpt><trkpt lat="38.253817" lon="15.4699675"><ele>36.5</ele><time>2026-04-08T07:29:10.007Z</time></trkpt><trkpt lat="38.2537091" lon="15.4700069"><ele>38.25</ele><time>2026-04-08T07:29:11.007Z</time></trkpt><trkpt lat="38.2535962" lon="15.4700409"><ele>40.0</ele><time>2026-04-08T07:29:12.006Z</time></trkpt><trkpt lat="38.2534791" lon="15.4700772"><ele>40.0</ele><time>2026-04-08T07:29:13.006Z</time></trkpt><trkpt lat="38.2533549" lon="15.4701184"><ele>40.0</ele><time>2026-04-08T07:29:14.007Z</time></trkpt><trkpt lat="38.2532166" lon="15.4701651"><ele>40.0</ele><time>2026-04-08T07:29:15.006Z</time></trkpt><trkpt lat="38.2530907" lon="15.4702069"><ele>40.0</ele><time>2026-04-08T07:29:16.005Z</time></trkpt><trkpt lat="38.252966" lon="15.4702524"><ele>40.5</ele><time>2026-04-08T07:29:17.005Z</time></trkpt><trkpt lat="38.2528403" lon="15.4703008"><ele>41.0</ele><time>2026-04-08T07:29:18.007Z</time></trkpt><trkpt lat="38.2527125" lon="15.4703446"><ele>41.5</ele><time>2026-04-08T07:29:19.005Z</time></trkpt><trkpt lat="38.2525887" lon="15.4703906"><ele>42.0</ele><time>2026-04-08T07:29:20.005Z</time></trkpt><trkpt lat="38.2524622" lon="15.4704399"><ele>42.0</ele><time>2026-04-08T07:29:21.007Z</time></trkpt><trkpt lat="38.2523386" lon="15.4704871"><ele>42.0</ele><time>2026-04-08T07:29:22.005Z</time></trkpt><trkpt lat="38.2522183" lon="15.4705325"><ele>42.0</ele><time>2026-04-08T07:29:23.007Z</time></trkpt><trkpt lat="38.252097" lon="15.4705816"><ele>42.0</ele><time>2026-04-08T07:29:24.006Z</time></trkpt><trkpt lat="38.2519775" lon="15.4706281"><ele>42.0</ele><time>2026-04-08T07:29:25.007Z</time></trkpt><trkpt lat="38.2518681" lon="15.470668"><ele>42.0</ele><time>2026-04-08T07:29:26.007Z</time></trkpt><trkpt lat="38.2517609" lon="15.4707131"><ele>42.0</ele><time>2026-04-08T07:29:27.007Z</time></trkpt><trkpt lat="38.251662" lon="15.470756"><ele>42.0</ele><time>2026-04-08T07:29:28.006Z</time></trkpt><trkpt lat="38.251575" lon="15.4707941"><ele>42.0</ele><time>2026-04-08T07:29:29.005Z</time></trkpt><trkpt lat="38.2514835" lon="15.4708368"><ele>44.6</ele><time>2026-04-08T07:29:30.007Z</time></trkpt><trkpt lat="38.2513908" lon="15.4708792"><ele>47.2</ele><time>2026-04-08T07:29:31.007Z</time></trkpt><trkpt lat="38.2513018" lon="15.470923"><ele>49.8</ele><time>2026-04-08T07:29:32.006Z</time></trkpt><trkpt lat="38.2512154" lon="15.4709775"><ele>52.4</ele><time>2026-04-08T07:29:33.006Z</time></trkpt><trkpt lat="38.2511291" lon="15.4710372"><ele>55.0</ele><time>2026-04-08T07:29:34.006Z</time></trkpt><trkpt lat="38.2510371" lon="15.4710986"><ele>54.99999999999999</ele><time>2026-04-08T07:29:35.007Z</time></trkpt><trkpt lat="38.2509463" lon="15.4711582"><ele>55.0</ele><time>2026-04-08T07:29:36.007Z</time></trkpt><trkpt lat="38.2508653" lon="15.4712063"><ele>55.0</ele><time>2026-04-08T07:29:37.007Z</time></trkpt><trkpt lat="38.2507894" lon="15.4712532"><ele>55.0</ele><time>2026-04-08T07:29:38.006Z</time></trkpt><trkpt lat="38.2507197" lon="15.4712968"><ele>54.99999999999999</ele><time>2026-04-08T07:29:39.007Z</time></trkpt><trkpt lat="38.2506528" lon="15.4713417"><ele>55.0</ele><time>2026-04-08T07:29:40.007Z</time></trkpt><trkpt lat="38.2505873" lon="15.4713841"><ele>57.0</ele><time>2026-04-08T07:29:41.007Z</time></trkpt><trkpt lat="38.2505278" lon="15.4714191"><ele>59.0</ele><time>2026-04-08T07:29:42.006Z</time></trkpt><trkpt lat="38.2504669" lon="15.47146"><ele>61.0</ele><time>2026-04-08T07:29:43.007Z</time></trkpt><trkpt lat="38.2504024" lon="15.4715092"><ele>63.0</ele><time>2026-04-08T07:29:44.005Z</time></trkpt><trkpt lat="38.2503458" lon="15.4715484"><ele>65.0</ele><time>2026-04-08T07:29:45.006Z</time></trkpt><trkpt lat="38.2502916" lon="15.4715894"><ele>67.0</ele><time>2026-04-08T07:29:46.007Z</time></trkpt><trkpt lat="38.250208" lon="15.4716365"><ele>69.0</ele><time>2026-04-08T07:29:48.006Z</time></trkpt><trkpt lat="38.250146" lon="15.4716174"><ele>69.0</ele><time>2026-04-08T07:29:50.007Z</time></trkpt><trkpt lat="38.2501133" lon="15.4715467"><ele>69.0</ele><time>2026-04-08T07:29:52.007Z</time></trkpt><trkpt lat="38.2500258" lon="15.4714897"><ele>69.0</ele><time>2026-04-08T07:29:55.005Z</time></trkpt><trkpt lat="38.2499626" lon="15.4714799"><ele>69.0</ele><time>2026-04-08T07:29:56.005Z</time></trkpt><trkpt lat="38.2498915" lon="15.4714815"><ele>69.0</ele><time>2026-04-08T07:29:57.007Z</time></trkpt><trkpt lat="38.2498235" lon="15.4714775"><ele>69.0</ele><time>2026-04-08T07:29:58.005Z</time></trkpt><trkpt lat="38.249758" lon="15.4714699"><ele>69.0</ele><time>2026-04-08T07:29:59.007Z</time></trkpt><trkpt lat="38.2496953" lon="15.4714612"><ele>60.0</ele><time>2026-04-08T07:30:00.006Z</time></trkpt><trkpt lat="38.2496284" lon="15.4714449"><ele>60.0</ele><time>2026-04-08T07:30:02.006Z</time></trkpt></trkseg><trkseg><trkpt lat="38.2446954" lon="15.4749223"><ele>95.0</ele><time>2026-04-08T07:33:31.005Z</time></trkpt><trkpt lat="38.2446671" lon="15.4750256"><ele>95.0</ele><time>2026-04-08T07:33:54.006Z</time></trkpt><trkpt lat="38.2446412" lon="15.4751001"><ele>95.0</ele><time>2026-04-08T07:33:57.007Z</time></trkpt><trkpt lat="38.2446364" lon="15.4751884"><ele>95.0</ele><time>2026-04-08T07:35:53.007Z</time></trkpt><trkpt lat="38.2446154" lon="15.4753395"><ele>95.0</ele><time>2026-04-08T07:35:55.006Z</time></trkpt><trkpt lat="38.2445981" lon="15.475437"><ele>95.0</ele><time>2026-04-08T07:35:56.005Z</time></trkpt><trkpt lat="38.2445885" lon="15.4755368"><ele>92.83333333333334</ele><time>2026-04-08T07:35:57.006Z</time></trkpt><trkpt lat="38.2445716" lon="15.4756187"><ele>90.66666666666667</ele><time>2026-04-08T07:35:58.007Z</time></trkpt><trkpt lat="38.2445289" lon="15.4757481"><ele>88.5</ele><time>2026-04-08T07:36:00.007Z</time></trkpt><trkpt lat="38.2444797" lon="15.4758461"><ele>86.33333333333333</ele><time>2026-04-08T07:36:02.007Z</time></trkpt><trkpt lat="38.2444322" lon="15.4759047"><ele>84.16666666666666</ele><time>2026-04-08T07:36:04.006Z</time></trkpt><trkpt lat="38.2443934" lon="15.4759692"><ele>82.0</ele><time>2026-04-08T07:36:06.007Z</time></trkpt><trkpt lat="38.2443347" lon="15.4760096"><ele>82.0</ele><time>2026-04-08T07:36:08.006Z</time></trkpt><trkpt lat="38.244244" lon="15.4760162"><ele>82.0</ele><time>2026-04-08T07:36:10.007Z</time></trkpt><trkpt lat="38.2441327" lon="15.4760359"><ele>82.0</ele><time>2026-04-08T07:36:12.007Z</time></trkpt><trkpt lat="38.2440592" lon="15.4760801"><ele>82.0</ele><time>2026-04-08T07:36:13.006Z</time></trkpt><trkpt lat="38.2439934" lon="15.4761224"><ele>82.0</ele><time>2026-04-08T07:36:14.006Z</time></trkpt><trkpt lat="38.2439106" lon="15.4761628"><ele>82.0</ele><time>2026-04-08T07:36:15.007Z</time></trkpt><trkpt lat="38.2438387" lon="15.4761842"><ele>82.66666666666666</ele><time>2026-04-08T07:36:16.006Z</time></trkpt><trkpt lat="38.2437684" lon="15.4762169"><ele>83.33333333333333</ele><time>2026-04-08T07:36:17.006Z</time></trkpt><trkpt lat="38.2437007" lon="15.4762544"><ele>84.0</ele><time>2026-04-08T07:36:18.006Z</time></trkpt><trkpt lat="38.2436294" lon="15.4762832"><ele>84.66666666666667</ele><time>2026-04-08T07:36:19.006Z</time></trkpt><trkpt lat="38.2435591" lon="15.4763146"><ele>85.33333333333334</ele><time>2026-04-08T07:36:20.007Z</time></trkpt><trkpt lat="38.2435017" lon="15.4763538"><ele>86.0</ele><time>2026-04-08T07:36:21.006Z</time></trkpt><trkpt lat="38.2433992" lon="15.4764615"><ele>86.00000000000001</ele><time>2026-04-08T07:36:23.006Z</time></trkpt><trkpt lat="38.2433608" lon="15.4765328"><ele>86.0</ele><time>2026-04-08T07:36:24.006Z</time></trkpt><trkpt lat="38.2433053" lon="15.4765916"><ele>86.0</ele><time>2026-04-08T07:36:25.007Z</time></trkpt><trkpt lat="38.2432613" lon="15.4766565"><ele>86.0</ele><time>2026-04-08T07:36:26.006Z</time></trkpt><trkpt lat="38.2432128" lon="15.4767088"><ele>86.0</ele><time>2026-04-08T07:36:27.006Z</time></trkpt><trkpt lat="38.2431175" lon="15.4767807"><ele>86.00000000000001</ele><time>2026-04-08T07:36:29.007Z</time></trkpt><trkpt lat="38.2430581" lon="15.4768179"><ele>86.0</ele><time>2026-04-08T07:36:30.007Z</time></trkpt><trkpt lat="38.24299" lon="15.4768575"><ele>88.83333333333334</ele><time>2026-04-08T07:36:31.006Z</time></trkpt><trkpt lat="38.2429332" lon="15.4769049"><ele>91.66666666666667</ele><time>2026-04-08T07:36:32.007Z</time></trkpt><trkpt lat="38.2428654" lon="15.4770336"><ele>94.5</ele><time>2026-04-08T07:36:34.006Z</time></trkpt><trkpt lat="38.2428365" lon="15.4771135"><ele>97.33333333333334</ele><time>2026-04-08T07:36:35.005Z</time></trkpt><trkpt lat="38.2428293" lon="15.4771938"><ele>100.16666666666667</ele><time>2026-04-08T07:36:36.007Z</time></trkpt><trkpt lat="38.2428376" lon="15.4772735"><ele>103.0</ele><time>2026-04-08T07:36:37.006Z</time></trkpt><trkpt lat="38.2428736" lon="15.4774094"><ele>103.00000000000001</ele><time>2026-04-08T07:36:39.006Z</time></trkpt><trkpt lat="38.2429199" lon="15.4774944"><ele>103.0</ele><time>2026-04-08T07:36:41.006Z</time></trkpt><trkpt lat="38.2429616" lon="15.4775567"><ele>103.0</ele><time>2026-04-08T07:36:43.007Z</time></trkpt><trkpt lat="38.2430284" lon="15.4776067"><ele>103.0</ele><time>2026-04-08T07:36:46.006Z</time></trkpt><trkpt lat="38.243102" lon="15.4776745"><ele>103.00000000000001</ele><time>2026-04-08T07:36:49.007Z</time></trkpt><trkpt lat="38.2431517" lon="15.4777358"><ele>103.0</ele><time>2026-04-08T07:36:51.007Z</time></trkpt><trkpt lat="38.2432188" lon="15.477801"><ele>102.83333333333334</ele><time>2026-04-08T07:36:54.008Z</time></trkpt><trkpt lat="38.2432696" lon="15.4778605"><ele>102.66666666666667</ele><time>2026-04-08T07:36:56.008Z</time></trkpt><trkpt lat="38.2433402" lon="15.4779247"><ele>102.5</ele><time>2026-04-08T07:36:59.007Z</time></trkpt><trkpt lat="38.2434055" lon="15.4779826"><ele>102.33333333333334</ele><time>2026-04-08T07:37:02.008Z</time></trkpt><trkpt lat="38.2434603" lon="15.4780338"><ele>102.16666666666667</ele><time>2026-04-08T07:37:06.007Z</time></trkpt><trkpt lat="38.2435028" lon="15.4781029"><ele>102.0</ele><time>2026-04-08T07:37:10.008Z</time></trkpt><trkpt lat="38.2435299" lon="15.4782061"><ele>102.0</ele><time>2026-04-08T07:37:13.008Z</time></trkpt><trkpt lat="38.2435395" lon="15.4782984"><ele>102.0</ele><time>2026-04-08T07:37:15.007Z</time></trkpt><trkpt lat="38.2435265" lon="15.4783852"><ele>102.0</ele><time>2026-04-08T07:37:18.008Z</time></trkpt><trkpt lat="38.24351" lon="15.478465"><ele>102.0</ele><time>2026-04-08T07:37:22.007Z</time></trkpt><trkpt lat="38.2434906" lon="15.478564"><ele>102.0</ele><time>2026-04-08T07:37:24.008Z</time></trkpt><trkpt lat="38.2434423" lon="15.4786326"><ele>102.0</ele><time>2026-04-08T07:37:26.008Z</time></trkpt><trkpt lat="38.2433812" lon="15.4786891"><ele>102.0</ele><time>2026-04-08T07:37:29.007Z</time></trkpt><trkpt lat="38.2433346" lon="15.4787478"><ele>102.83333333333333</ele><time>2026-04-08T07:37:31.008Z</time></trkpt><trkpt lat="38.2432842" lon="15.4787976"><ele>103.66666666666666</ele><time>2026-04-08T07:37:33.007Z</time></trkpt><trkpt lat="38.2432384" lon="15.4788563"><ele>104.5</ele><time>2026-04-08T07:37:35.006Z</time></trkpt><trkpt lat="38.2431614" lon="15.4789174"><ele>105.33333333333333</ele><time>2026-04-08T07:37:37.008Z</time></trkpt><trkpt lat="38.2431082" lon="15.4789879"><ele>106.16666666666666</ele><time>2026-04-08T07:37:39.008Z</time></trkpt><trkpt lat="38.2430512" lon="15.4790794"><ele>107.0</ele><time>2026-04-08T07:37:41.007Z</time></trkpt><trkpt lat="38.2430033" lon="15.4792053"><ele>107.83333333333333</ele><time>2026-04-08T07:37:43.006Z</time></trkpt><trkpt lat="38.2429479" lon="15.4792789"><ele>108.66666666666666</ele><time>2026-04-08T07:37:45.008Z</time></trkpt><trkpt lat="38.2429001" lon="15.4793794"><ele>109.5</ele><time>2026-04-08T07:37:47.008Z</time></trkpt><trkpt lat="38.2428616" lon="15.4794737"><ele>110.33333333333334</ele><time>2026-04-08T07:37:49.008Z</time></trkpt><trkpt lat="38.2428277" lon="15.4795534"><ele>111.16666666666667</ele><time>2026-04-08T07:37:51.007Z</time></trkpt><trkpt lat="38.2428081" lon="15.4796527"><ele>112.0</ele><time>2026-04-08T07:37:53.008Z</time></trkpt><trkpt lat="38.2427919" lon="15.4797523"><ele>112.0</ele><time>2026-04-08T07:37:55.007Z</time></trkpt><trkpt lat="38.2428136" lon="15.4798464"><ele>111.99999999999999</ele><time>2026-04-08T07:37:57.008Z</time></trkpt><trkpt lat="38.2428724" lon="15.4799716"><ele>111.99999999999999</ele><time>2026-04-08T07:37:59.007Z</time></trkpt><trkpt lat="38.2429144" lon="15.4800911"><ele>112.0</ele><time>2026-04-08T07:38:01.008Z</time></trkpt><trkpt lat="38.2429378" lon="15.4802136"><ele>112.0</ele><time>2026-04-08T07:38:03.007Z</time></trkpt><trkpt lat="38.2429859" lon="15.4803136"><ele>112.00000000000001</ele><time>2026-04-08T07:38:05.007Z</time></trkpt><trkpt lat="38.2430252" lon="15.4804016"><ele>112.0</ele><time>2026-04-08T07:38:07.007Z</time></trkpt><trkpt lat="38.2430031" lon="15.4805012"><ele>112.0</ele><time>2026-04-08T07:38:10.007Z</time></trkpt><trkpt lat="38.242918" lon="15.4805268"><ele>112.0</ele><time>2026-04-08T07:38:13.007Z</time></trkpt><trkpt lat="38.2428472" lon="15.4805227"><ele>112.00000000000001</ele><time>2026-04-08T07:38:15.006Z</time></trkpt><trkpt lat="38.2427847" lon="15.4805336"><ele>112.0</ele><time>2026-04-08T07:38:17.007Z</time></trkpt><trkpt lat="38.2427133" lon="15.4805604"><ele>113.0</ele><time>2026-04-08T07:38:19.007Z</time></trkpt><trkpt lat="38.2426508" lon="15.4805814"><ele>114.0</ele><time>2026-04-08T07:38:21.008Z</time></trkpt><trkpt lat="38.2425831" lon="15.4805813"><ele>115.0</ele><time>2026-04-08T07:38:23.008Z</time></trkpt><trkpt lat="38.242516" lon="15.4805769"><ele>116.0</ele><time>2026-04-08T07:38:25.006Z</time></trkpt><trkpt lat="38.2424293" lon="15.4805754"><ele>117.0</ele><time>2026-04-08T07:38:28.008Z</time></trkpt><trkpt lat="38.242364" lon="15.4805694"><ele>118.0</ele><time>2026-04-08T07:38:31.008Z</time></trkpt><trkpt lat="38.2423014" lon="15.4805811"><ele>119.0</ele><time>2026-04-08T07:38:36.007Z</time></trkpt><trkpt lat="38.2422412" lon="15.4806627"><ele>119.0</ele><time>2026-04-08T07:38:46.007Z</time></trkpt><trkpt lat="38.2422212" lon="15.4807519"><ele>119.0</ele><time>2026-04-08T07:38:48.007Z</time></trkpt><trkpt lat="38.2422374" lon="15.4808385"><ele>119.0</ele><time>2026-04-08T07:38:50.008Z</time></trkpt><trkpt lat="38.2422672" lon="15.4809189"><ele>119.0</ele><time>2026-04-08T07:38:54.008Z</time></trkpt><trkpt lat="38.2423235" lon="15.480968"><ele>119.0</ele><time>2026-04-08T07:38:58.007Z</time></trkpt><trkpt lat="38.2423707" lon="15.4810468"><ele>119.0</ele><time>2026-04-08T07:39:01.007Z</time></trkpt><trkpt lat="38.2424036" lon="15.4811521"><ele>119.0</ele><time>2026-04-08T07:39:04.008Z</time></trkpt><trkpt lat="38.2424101" lon="15.4812343"><ele>121.99999999999999</ele><time>2026-04-08T07:39:09.006Z</time></trkpt><trkpt lat="38.2423898" lon="15.4813342"><ele>125.0</ele><time>2026-04-08T07:39:14.007Z</time></trkpt><trkpt lat="38.2423734" lon="15.4814226"><ele>128.0</ele><time>2026-04-08T07:39:17.008Z</time></trkpt><trkpt lat="38.2423498" lon="15.4815244"><ele>131.0</ele><time>2026-04-08T07:39:20.007Z</time></trkpt><trkpt lat="38.2423383" lon="15.4816336"><ele>134.0</ele><time>2026-04-08T07:39:24.006Z</time></trkpt><trkpt lat="38.2423135" lon="15.4817409"><ele>137.0</ele><time>2026-04-08T07:39:26.008Z</time></trkpt><trkpt lat="38.2422894" lon="15.4818342"><ele>139.0</ele><time>2026-04-08T07:39:28.007Z</time></trkpt><trkpt lat="38.2422759" lon="15.4819273"><ele>141.0</ele><time>2026-04-08T07:39:30.007Z</time></trkpt><trkpt lat="38.2422755" lon="15.4820296"><ele>143.0</ele><time>2026-04-08T07:39:32.008Z</time></trkpt><trkpt lat="38.2422763" lon="15.4821316"><ele>145.0</ele><time>2026-04-08T07:39:34.007Z</time></trkpt><trkpt lat="38.2422704" lon="15.4822181"><ele>147.0</ele><time>2026-04-08T07:39:36.007Z</time></trkpt><trkpt lat="38.2422572" lon="15.4823238"><ele>149.0</ele><time>2026-04-08T07:39:38.008Z</time></trkpt><trkpt lat="38.242246" lon="15.4824533"><ele>149.5</ele><time>2026-04-08T07:39:40.006Z</time></trkpt><trkpt lat="38.242245" lon="15.4825668"><ele>150.0</ele><time>2026-04-08T07:39:42.006Z</time></trkpt><trkpt lat="38.2422462" lon="15.4826612"><ele>150.5</ele><time>2026-04-08T07:39:44.007Z</time></trkpt><trkpt lat="38.2422348" lon="15.4827577"><ele>151.0</ele><time>2026-04-08T07:39:46.008Z</time></trkpt><trkpt lat="38.2422192" lon="15.482871"><ele>151.5</ele><time>2026-04-08T07:39:48.007Z</time></trkpt><trkpt lat="38.2422051" lon="15.482991"><ele>152.0</ele><time>2026-04-08T07:39:50.007Z</time></trkpt><trkpt lat="38.2421929" lon="15.4831129"><ele>152.0</ele><time>2026-04-08T07:39:52.008Z</time></trkpt><trkpt lat="38.2421936" lon="15.4832263"><ele>152.0</ele><time>2026-04-08T07:39:55.008Z</time></trkpt><trkpt lat="38.2421893" lon="15.483346"><ele>152.0</ele><time>2026-04-08T07:39:58.007Z</time></trkpt><trkpt lat="38.2421908" lon="15.4834526"><ele>152.0</ele><time>2026-04-08T07:40:00.008Z</time></trkpt><trkpt lat="38.2421884" lon="15.4835438"><ele>152.0</ele><time>2026-04-08T07:40:01.006Z</time></trkpt><trkpt lat="38.2421707" lon="15.4836488"><ele>152.0</ele><time>2026-04-08T07:40:03.006Z</time></trkpt><trkpt lat="38.2420818" lon="15.4836719"><ele>152.0</ele><time>2026-04-08T07:40:06.007Z</time></trkpt><trkpt lat="38.2419903" lon="15.4836406"><ele>152.0</ele><time>2026-04-08T07:40:08.007Z</time></trkpt><trkpt lat="38.2418773" lon="15.483632"><ele>152.0</ele><time>2026-04-08T07:40:10.007Z</time></trkpt><trkpt lat="38.2417817" lon="15.4836705"><ele>152.0</ele><time>2026-04-08T07:40:12.007Z</time></trkpt><trkpt lat="38.2416698" lon="15.4837758"><ele>152.0</ele><time>2026-04-08T07:40:14.008Z</time></trkpt><trkpt lat="38.2416014" lon="15.4838433"><ele>151.79999999999998</ele><time>2026-04-08T07:40:15.008Z</time></trkpt><trkpt lat="38.2415077" lon="15.483982"><ele>151.6</ele><time>2026-04-08T07:40:17.006Z</time></trkpt><trkpt lat="38.2414608" lon="15.4840433"><ele>151.39999999999998</ele><time>2026-04-08T07:40:18.007Z</time></trkpt><trkpt lat="38.2414352" lon="15.4841521"><ele>151.2</ele><time>2026-04-08T07:40:20.007Z</time></trkpt><trkpt lat="38.2413861" lon="15.4842856"><ele>151.0</ele><time>2026-04-08T07:40:22.007Z</time></trkpt><trkpt lat="38.2413416" lon="15.4844318"><ele>151.66666666666669</ele><time>2026-04-08T07:40:24.007Z</time></trkpt><trkpt lat="38.2413115" lon="15.4845173"><ele>152.33333333333334</ele><time>2026-04-08T07:40:25.008Z</time></trkpt><trkpt lat="38.2412809" lon="15.4846004"><ele>153.0</ele><time>2026-04-08T07:40:26.006Z</time></trkpt><trkpt lat="38.241251" lon="15.4847614"><ele>153.66666666666666</ele><time>2026-04-08T07:40:28.008Z</time></trkpt><trkpt lat="38.2412359" lon="15.4848534"><ele>154.33333333333331</ele><time>2026-04-08T07:40:29.007Z</time></trkpt><trkpt lat="38.2412209" lon="15.4849506"><ele>155.0</ele><time>2026-04-08T07:40:30.007Z</time></trkpt><trkpt lat="38.2411965" lon="15.485025"><ele>155.0</ele><time>2026-04-08T07:40:31.008Z</time></trkpt><trkpt lat="38.2411649" lon="15.4850952"><ele>155.0</ele><time>2026-04-08T07:40:32.008Z</time></trkpt><trkpt lat="38.2410871" lon="15.485172"><ele>155.0</ele><time>2026-04-08T07:40:34.007Z</time></trkpt><trkpt lat="38.2409771" lon="15.4852555"><ele>155.0</ele><time>2026-04-08T07:40:36.007Z</time></trkpt><trkpt lat="38.2408963" lon="15.4853634"><ele>155.0</ele><time>2026-04-08T07:40:38.007Z</time></trkpt><trkpt lat="38.2408455" lon="15.4854856"><ele>155.8</ele><time>2026-04-08T07:40:40.008Z</time></trkpt><trkpt lat="38.2408276" lon="15.4856135"><ele>156.6</ele><time>2026-04-08T07:40:42.008Z</time></trkpt><trkpt lat="38.2408453" lon="15.4857358"><ele>157.4</ele><time>2026-04-08T07:40:44.008Z</time></trkpt><trkpt lat="38.2408958" lon="15.4858354"><ele>158.2</ele><time>2026-04-08T07:40:46.007Z</time></trkpt><trkpt lat="38.2409623" lon="15.4859796"><ele>159.0</ele><time>2026-04-08T07:40:48.007Z</time></trkpt><trkpt lat="38.2410025" lon="15.4860586"><ele>159.0</ele><time>2026-04-08T07:40:49.008Z</time></trkpt><trkpt lat="38.2410363" lon="15.4861301"><ele>159.0</ele><time>2026-04-08T07:40:50.007Z</time></trkpt><trkpt lat="38.2410444" lon="15.4862808"><ele>159.0</ele><time>2026-04-08T07:40:52.007Z</time></trkpt><trkpt lat="38.2410076" lon="15.4864062"><ele>159.0</ele><time>2026-04-08T07:40:54.008Z</time></trkpt><trkpt lat="38.2409923" lon="15.486493"><ele>159.0</ele><time>2026-04-08T07:40:56.008Z</time></trkpt><trkpt lat="38.2409821" lon="15.4866201"><ele>159.6</ele><time>2026-04-08T07:41:00.008Z</time></trkpt><trkpt lat="38.2409459" lon="15.4867538"><ele>160.2</ele><time>2026-04-08T07:41:02.008Z</time></trkpt><trkpt lat="38.2409111" lon="15.486828"><ele>160.79999999999998</ele><time>2026-04-08T07:41:03.006Z</time></trkpt><trkpt lat="38.2408801" lon="15.4869051"><ele>161.4</ele><time>2026-04-08T07:41:04.008Z</time></trkpt><trkpt lat="38.2408139" lon="15.4870135"><ele>162.0</ele><time>2026-04-08T07:41:06.007Z</time></trkpt><trkpt lat="38.240738" lon="15.4870968"><ele>161.8</ele><time>2026-04-08T07:41:08.008Z</time></trkpt><trkpt lat="38.240614" lon="15.4870875"><ele>161.6</ele><time>2026-04-08T07:41:10.007Z</time></trkpt><trkpt lat="38.2405443" lon="15.4870903"><ele>161.4</ele><time>2026-04-08T07:41:11.007Z</time></trkpt><trkpt lat="38.2404202" lon="15.4871524"><ele>161.20000000000002</ele><time>2026-04-08T07:41:13.007Z</time></trkpt><trkpt lat="38.2403613" lon="15.4872001"><ele>161.0</ele><time>2026-04-08T07:41:14.008Z</time></trkpt><trkpt lat="38.2403087" lon="15.4873087"><ele>161.0</ele><time>2026-04-08T07:41:15.008Z</time></trkpt><trkpt lat="38.2402702" lon="15.4873842"><ele>161.0</ele><time>2026-04-08T07:41:16.007Z</time></trkpt><trkpt lat="38.240235" lon="15.4874682"><ele>161.0</ele><time>2026-04-08T07:41:17.006Z</time></trkpt><trkpt lat="38.2401759" lon="15.4876029"><ele>161.0</ele><time>2026-04-08T07:41:19.008Z</time></trkpt><trkpt lat="38.2401508" lon="15.4876844"><ele>161.0</ele><time>2026-04-08T07:41:20.008Z</time></trkpt><trkpt lat="38.2401125" lon="15.4877506"><ele>161.0</ele><time>2026-04-08T07:41:21.008Z</time></trkpt><trkpt lat="38.2400841" lon="15.4878254"><ele>161.0</ele><time>2026-04-08T07:41:22.007Z</time></trkpt><trkpt lat="38.2400633" lon="15.4879253"><ele>161.0</ele><time>2026-04-08T07:41:23.006Z</time></trkpt><trkpt lat="38.2400244" lon="15.4880547"><ele>161.0</ele><time>2026-04-08T07:41:24.007Z</time></trkpt><trkpt lat="38.2400076" lon="15.4881666"><ele>161.0</ele><time>2026-04-08T07:41:25.006Z</time></trkpt><trkpt lat="38.239977" lon="15.4882661"><ele>161.0</ele><time>2026-04-08T07:41:26.006Z</time></trkpt><trkpt lat="38.2399399" lon="15.488376"><ele>160.5</ele><time>2026-04-08T07:41:27.007Z</time></trkpt><trkpt lat="38.2399116" lon="15.4884836"><ele>160.0</ele><time>2026-04-08T07:41:28.006Z</time></trkpt><trkpt lat="38.239882" lon="15.4885859"><ele>159.5</ele><time>2026-04-08T07:41:29.008Z</time></trkpt><trkpt lat="38.2398548" lon="15.488668"><ele>159.0</ele><time>2026-04-08T07:41:30.008Z</time></trkpt><trkpt lat="38.2398297" lon="15.4887434"><ele>158.5</ele><time>2026-04-08T07:41:31.008Z</time></trkpt><trkpt lat="38.2397702" lon="15.488886"><ele>158.0</ele><time>2026-04-08T07:41:33.007Z</time></trkpt><trkpt lat="38.2397315" lon="15.4889755"><ele>160.0</ele><time>2026-04-08T07:41:34.008Z</time></trkpt><trkpt lat="38.2397" lon="15.4890539"><ele>162.0</ele><time>2026-04-08T07:41:35.007Z</time></trkpt><trkpt lat="38.2396646" lon="15.4891308"><ele>164.0</ele><time>2026-04-08T07:41:36.006Z</time></trkpt><trkpt lat="38.2396064" lon="15.4892431"><ele>166.0</ele><time>2026-04-08T07:41:38.008Z</time></trkpt><trkpt lat="38.2395548" lon="15.4893872"><ele>168.0</ele><time>2026-04-08T07:42:02.007Z</time></trkpt><trkpt lat="38.2395192" lon="15.4895274"><ele>167.16666666666666</ele><time>2026-04-08T07:42:04.007Z</time></trkpt><trkpt lat="38.2394964" lon="15.4896161"><ele>166.33333333333334</ele><time>2026-04-08T07:42:05.008Z</time></trkpt><trkpt lat="38.2394755" lon="15.489706"><ele>165.5</ele><time>2026-04-08T07:42:06.007Z</time></trkpt><trkpt lat="38.2394312" lon="15.4898574"><ele>164.66666666666669</ele><time>2026-04-08T07:42:08.006Z</time></trkpt><trkpt lat="38.2394078" lon="15.4899331"><ele>163.83333333333334</ele><time>2026-04-08T07:42:09.008Z</time></trkpt><trkpt lat="38.2393723" lon="15.4900008"><ele>163.0</ele><time>2026-04-08T07:42:10.006Z</time></trkpt><trkpt lat="38.2393712" lon="15.4900851"><ele>163.0</ele><time>2026-04-08T07:42:11.008Z</time></trkpt><trkpt lat="38.2393471" lon="15.4902093"><ele>163.0</ele><time>2026-04-08T07:42:13.007Z</time></trkpt><trkpt lat="38.2393611" lon="15.490361"><ele>163.0</ele><time>2026-04-08T07:47:23.009Z</time></trkpt><trkpt lat="38.2393819" lon="15.4904413"><ele>163.0</ele><time>2026-04-08T07:47:25.008Z</time></trkpt><trkpt lat="38.2393667" lon="15.4905417"><ele>163.0</ele><time>2026-04-08T07:47:28.008Z</time></trkpt><trkpt lat="38.2393297" lon="15.4906291"><ele>163.0</ele><time>2026-04-08T07:47:30.008Z</time></trkpt><trkpt lat="38.2393029" lon="15.4907102"><ele>163.14285714285714</ele><time>2026-04-08T07:47:32.009Z</time></trkpt><trkpt lat="38.2392701" lon="15.4908034"><ele>163.28571428571428</ele><time>2026-04-08T07:47:34.009Z</time></trkpt><trkpt lat="38.2392386" lon="15.4908886"><ele>163.42857142857142</ele><time>2026-04-08T07:47:36.009Z</time></trkpt><trkpt lat="38.2392126" lon="15.4909636"><ele>163.57142857142856</ele><time>2026-04-08T07:47:38.009Z</time></trkpt><trkpt lat="38.2391631" lon="15.4910213"><ele>163.71428571428572</ele><time>2026-04-08T07:47:44.009Z</time></trkpt><trkpt lat="38.2391325" lon="15.4910935"><ele>163.85714285714283</ele><time>2026-04-08T07:47:50.008Z</time></trkpt><trkpt lat="38.2390847" lon="15.4911545"><ele>164.0</ele><time>2026-04-08T07:47:54.008Z</time></trkpt><trkpt lat="38.2390471" lon="15.4912272"><ele>164.0</ele><time>2026-04-08T07:47:57.009Z</time></trkpt><trkpt lat="38.2390034" lon="15.4913118"><ele>164.0</ele><time>2026-04-08T07:48:00.009Z</time></trkpt><trkpt lat="38.238987" lon="15.4914021"><ele>164.0</ele><time>2026-04-08T07:48:04.009Z</time></trkpt><trkpt lat="38.2389751" lon="15.4914824"><ele>164.0</ele><time>2026-04-08T07:48:16.008Z</time></trkpt><trkpt lat="38.2389754" lon="15.4916544"><ele>164.0</ele><time>2026-04-08T07:51:32.008Z</time></trkpt><trkpt lat="38.2389829" lon="15.4917345"><ele>164.0</ele><time>2026-04-08T07:51:54.009Z</time></trkpt></trkseg><trkseg><trkpt lat="38.2389641" lon="15.491883"><ele>182.0</ele><time>2026-04-08T08:05:52.008Z</time></trkpt><trkpt lat="38.2389345" lon="15.4919668"><ele>182.0</ele><time>2026-04-08T08:06:16.009Z</time></trkpt><trkpt lat="38.2389108" lon="15.4920493"><ele>182.0</ele><time>2026-04-08T08:06:28.009Z</time></trkpt><trkpt lat="38.2388683" lon="15.4921145"><ele>182.0</ele><time>2026-04-08T08:06:35.007Z</time></trkpt><trkpt lat="38.2388123" lon="15.4921668"><ele>182.0</ele><time>2026-04-08T08:06:44.008Z</time></trkpt><trkpt lat="38.2387572" lon="15.4922332"><ele>182.0</ele><time>2026-04-08T08:06:49.007Z</time></trkpt><trkpt lat="38.2387032" lon="15.4922874"><ele>182.0</ele><time>2026-04-08T08:06:52.008Z</time></trkpt><trkpt lat="38.2386606" lon="15.4923613"><ele>182.0</ele><time>2026-04-08T08:06:55.006Z</time></trkpt><trkpt lat="38.2386138" lon="15.492417"><ele>182.0</ele><time>2026-04-08T08:07:01.007Z</time></trkpt><trkpt lat="38.2386133" lon="15.4925143"><ele>182.0</ele><time>2026-04-08T08:07:05.007Z</time></trkpt><trkpt lat="38.2386289" lon="15.4925938"><ele>182.0</ele><time>2026-04-08T08:07:09.007Z</time></trkpt><trkpt lat="38.2386589" lon="15.4926685"><ele>182.0</ele><time>2026-04-08T08:07:58.007Z</time></trkpt><trkpt lat="38.2386661" lon="15.492768"><ele>182.0</ele><time>2026-04-08T08:13:04.007Z</time></trkpt><trkpt lat="38.2386843" lon="15.4928671"><ele>182.0</ele><time>2026-04-08T08:13:16.007Z</time></trkpt><trkpt lat="38.2387137" lon="15.4929469"><ele>181.66666666666666</ele><time>2026-04-08T08:13:19.007Z</time></trkpt><trkpt lat="38.2387337" lon="15.4930439"><ele>181.33333333333331</ele><time>2026-04-08T08:13:23.007Z</time></trkpt><trkpt lat="38.2387338" lon="15.4931579"><ele>181.0</ele><time>2026-04-08T08:13:27.007Z</time></trkpt><trkpt lat="38.2387734" lon="15.4932447"><ele>180.66666666666666</ele><time>2026-04-08T08:13:32.008Z</time></trkpt><trkpt lat="38.2388022" lon="15.4933578"><ele>180.33333333333334</ele><time>2026-04-08T08:13:35.007Z</time></trkpt><trkpt lat="38.2388122" lon="15.4934382"><ele>180.0</ele><time>2026-04-08T08:13:37.007Z</time></trkpt><trkpt lat="38.2388018" lon="15.4935537"><ele>180.0</ele><time>2026-04-08T08:13:40.006Z</time></trkpt><trkpt lat="38.2387872" lon="15.4936451"><ele>180.0</ele><time>2026-04-08T08:13:43.007Z</time></trkpt><trkpt lat="38.2387498" lon="15.4937533"><ele>180.0</ele><time>2026-04-08T08:13:46.007Z</time></trkpt><trkpt lat="38.238706" lon="15.4938165"><ele>180.0</ele><time>2026-04-08T08:13:49.007Z</time></trkpt><trkpt lat="38.2386707" lon="15.4939262"><ele>180.0</ele><time>2026-04-08T08:13:52.007Z</time></trkpt><trkpt lat="38.2387015" lon="15.4940155"><ele>180.0</ele><time>2026-04-08T08:13:54.008Z</time></trkpt><trkpt lat="38.2387496" lon="15.4940915"><ele>179.0</ele><time>2026-04-08T08:13:56.007Z</time></trkpt><trkpt lat="38.2387693" lon="15.4941708"><ele>179.0</ele><time>2026-04-08T08:14:14.008Z</time></trkpt><trkpt lat="38.2388113" lon="15.4942458"><ele>179.0</ele><time>2026-04-08T08:14:19.007Z</time></trkpt><trkpt lat="38.2388066" lon="15.4943313"><ele>179.0</ele><time>2026-04-08T08:14:24.007Z</time></trkpt><trkpt lat="38.2387468" lon="15.4943731"><ele>179.0</ele><time>2026-04-08T08:14:29.007Z</time></trkpt><trkpt lat="38.2386925" lon="15.4944238"><ele>179.0</ele><time>2026-04-08T08:14:46.008Z</time></trkpt><trkpt lat="38.2386238" lon="15.4944693"><ele>179.0</ele><time>2026-04-08T08:14:51.007Z</time></trkpt></trkseg><trkseg><trkpt lat="38.2384563" lon="15.4950347"><ele>177.99999999999997</ele><time>2026-04-08T08:34:31.007Z</time></trkpt><trkpt lat="38.2384915" lon="15.495129"><ele>178.0</ele><time>2026-04-08T08:34:37.007Z</time></trkpt><trkpt lat="38.2385259" lon="15.4951976"><ele>178.0</ele><time>2026-04-08T08:34:41.006Z</time></trkpt><trkpt lat="38.2385518" lon="15.4952892"><ele>178.0</ele><time>2026-04-08T08:34:45.007Z</time></trkpt><trkpt lat="38.2385764" lon="15.4953679"><ele>178.0</ele><time>2026-04-08T08:34:48.006Z</time></trkpt><trkpt lat="38.2385971" lon="15.495451"><ele>177.99999999999997</ele><time>2026-04-08T08:34:51.007Z</time></trkpt><trkpt lat="38.2386185" lon="15.4955362"><ele>178.0</ele><time>2026-04-08T08:35:03.006Z</time></trkpt><trkpt lat="38.2386291" lon="15.4956159"><ele>178.5</ele><time>2026-04-08T08:35:07.005Z</time></trkpt><trkpt lat="38.2386149" lon="15.4957104"><ele>179.0</ele><time>2026-04-08T08:35:10.006Z</time></trkpt><trkpt lat="38.2385502" lon="15.495791"><ele>179.5</ele><time>2026-04-08T08:35:13.006Z</time></trkpt><trkpt lat="38.2384883" lon="15.4958355"><ele>180.0</ele><time>2026-04-08T08:35:15.006Z</time></trkpt><trkpt lat="38.2384018" lon="15.495862"><ele>180.5</ele><time>2026-04-08T08:35:17.005Z</time></trkpt><trkpt lat="38.238306" lon="15.4959"><ele>181.0</ele><time>2026-04-08T08:35:19.007Z</time></trkpt><trkpt lat="38.2382244" lon="15.4959642"><ele>181.0</ele><time>2026-04-08T08:35:21.006Z</time></trkpt><trkpt lat="38.2381381" lon="15.4960631"><ele>181.0</ele><time>2026-04-08T08:35:23.006Z</time></trkpt><trkpt lat="38.2380939" lon="15.4961306"><ele>181.0</ele><time>2026-04-08T08:35:24.007Z</time></trkpt><trkpt lat="38.238021" lon="15.496241"><ele>181.0</ele><time>2026-04-08T08:35:26.007Z</time></trkpt><trkpt lat="38.237943" lon="15.4963281"><ele>181.0</ele><time>2026-04-08T08:35:28.006Z</time></trkpt><trkpt lat="38.2378647" lon="15.4964026"><ele>182.4</ele><time>2026-04-08T08:35:30.006Z</time></trkpt><trkpt lat="38.2377674" lon="15.4964723"><ele>183.8</ele><time>2026-04-08T08:35:32.006Z</time></trkpt><trkpt lat="38.2377114" lon="15.4965156"><ele>185.20000000000002</ele><time>2026-04-08T08:35:33.006Z</time></trkpt><trkpt lat="38.237611" lon="15.4966069"><ele>186.60000000000002</ele><time>2026-04-08T08:35:35.005Z</time></trkpt><trkpt lat="38.2375121" lon="15.4967009"><ele>188.0</ele><time>2026-04-08T08:35:37.006Z</time></trkpt><trkpt lat="38.2374639" lon="15.496759"><ele>188.0</ele><time>2026-04-08T08:35:38.005Z</time></trkpt><trkpt lat="38.237389" lon="15.4968332"><ele>188.0</ele><time>2026-04-08T08:35:40.007Z</time></trkpt><trkpt lat="38.2373182" lon="15.4968976"><ele>188.0</ele><time>2026-04-08T08:35:42.007Z</time></trkpt><trkpt lat="38.2372555" lon="15.4969741"><ele>188.0</ele><time>2026-04-08T08:35:44.006Z</time></trkpt><trkpt lat="38.2371947" lon="15.4970647"><ele>188.0</ele><time>2026-04-08T08:35:46.005Z</time></trkpt><trkpt lat="38.2371324" lon="15.4971171"><ele>188.0</ele><time>2026-04-08T08:35:48.006Z</time></trkpt><trkpt lat="38.2370665" lon="15.4971555"><ele>188.28571428571428</ele><time>2026-04-08T08:35:59.006Z</time></trkpt><trkpt lat="38.2370017" lon="15.4971647"><ele>188.57142857142856</ele><time>2026-04-08T08:36:01.005Z</time></trkpt><trkpt lat="38.2369271" lon="15.4971954"><ele>188.85714285714286</ele><time>2026-04-08T08:36:04.007Z</time></trkpt><trkpt lat="38.2368661" lon="15.4972352"><ele>189.14285714285714</ele><time>2026-04-08T08:36:24.007Z</time></trkpt><trkpt lat="38.2368269" lon="15.4973071"><ele>189.42857142857144</ele><time>2026-04-08T08:36:33.006Z</time></trkpt><trkpt lat="38.2367996" lon="15.4973931"><ele>189.71428571428572</ele><time>2026-04-08T08:36:44.006Z</time></trkpt><trkpt lat="38.2367832" lon="15.4974765"><ele>190.0</ele><time>2026-04-08T08:36:59.007Z</time></trkpt><trkpt lat="38.2367921" lon="15.4975814"><ele>190.0</ele><time>2026-04-08T08:37:07.007Z</time></trkpt><trkpt lat="38.2367883" lon="15.4976841"><ele>190.0</ele><time>2026-04-08T08:37:09.005Z</time></trkpt><trkpt lat="38.2367695" lon="15.4977647"><ele>190.0</ele><time>2026-04-08T08:37:11.005Z</time></trkpt><trkpt lat="38.2367356" lon="15.4978516"><ele>190.0</ele><time>2026-04-08T08:37:18.005Z</time></trkpt><trkpt lat="38.2367323" lon="15.497977"><ele>190.0</ele><time>2026-04-08T08:37:21.006Z</time></trkpt><trkpt lat="38.2367353" lon="15.4980607"><ele>190.0</ele><time>2026-04-08T08:37:23.006Z</time></trkpt><trkpt lat="38.2367283" lon="15.4981823"><ele>190.66666666666669</ele><time>2026-04-08T08:38:13.007Z</time></trkpt><trkpt lat="38.2367463" lon="15.4982597"><ele>191.33333333333334</ele><time>2026-04-08T08:38:28.005Z</time></trkpt><trkpt lat="38.2367747" lon="15.4983367"><ele>192.0</ele><time>2026-04-08T08:38:34.006Z</time></trkpt><trkpt lat="38.2368146" lon="15.4984093"><ele>192.66666666666669</ele><time>2026-04-08T08:38:45.004Z</time></trkpt><trkpt lat="38.2368649" lon="15.4984963"><ele>193.33333333333334</ele><time>2026-04-08T08:38:48.005Z</time></trkpt><trkpt lat="38.2368827" lon="15.498593"><ele>194.0</ele><time>2026-04-08T08:38:51.006Z</time></trkpt><trkpt lat="38.2368605" lon="15.49871"><ele>195.33333333333334</ele><time>2026-04-08T08:38:54.004Z</time></trkpt><trkpt lat="38.2368262" lon="15.4988075"><ele>196.66666666666669</ele><time>2026-04-08T08:38:57.004Z</time></trkpt><trkpt lat="38.2367522" lon="15.4988801"><ele>198.0</ele><time>2026-04-08T08:39:00.005Z</time></trkpt><trkpt lat="38.2366917" lon="15.4989505"><ele>199.33333333333331</ele><time>2026-04-08T08:39:08.005Z</time></trkpt><trkpt lat="38.2366202" lon="15.4990284"><ele>200.66666666666666</ele><time>2026-04-08T08:39:11.006Z</time></trkpt><trkpt lat="38.236551" lon="15.4990929"><ele>202.0</ele><time>2026-04-08T08:39:13.005Z</time></trkpt><trkpt lat="38.236468" lon="15.4991145"><ele>202.16666666666666</ele><time>2026-04-08T08:39:15.006Z</time></trkpt><trkpt lat="38.2363827" lon="15.4991397"><ele>202.33333333333331</ele><time>2026-04-08T08:39:17.005Z</time></trkpt><trkpt lat="38.2362975" lon="15.4991648"><ele>202.5</ele><time>2026-04-08T08:39:19.006Z</time></trkpt><trkpt lat="38.2362159" lon="15.4991662"><ele>202.66666666666669</ele><time>2026-04-08T08:39:21.006Z</time></trkpt><trkpt lat="38.2361436" lon="15.4991741"><ele>202.83333333333334</ele><time>2026-04-08T08:39:23.005Z</time></trkpt><trkpt lat="38.2360924" lon="15.4992215"><ele>203.0</ele><time>2026-04-08T08:39:25.005Z</time></trkpt><trkpt lat="38.2360319" lon="15.4992777"><ele>203.00000000000003</ele><time>2026-04-08T08:39:27.006Z</time></trkpt><trkpt lat="38.2359694" lon="15.4993458"><ele>203.0</ele><time>2026-04-08T08:39:35.006Z</time></trkpt><trkpt lat="38.2359356" lon="15.4994166"><ele>203.0</ele><time>2026-04-08T08:39:48.005Z</time></trkpt><trkpt lat="38.2358861" lon="15.4994787"><ele>203.0</ele><time>2026-04-08T08:39:53.005Z</time></trkpt><trkpt lat="38.2358461" lon="15.4995639"><ele>203.00000000000003</ele><time>2026-04-08T08:40:02.005Z</time></trkpt><trkpt lat="38.2357846" lon="15.4996067"><ele>203.0</ele><time>2026-04-08T08:40:05.004Z</time></trkpt><trkpt lat="38.2356965" lon="15.4996444"><ele>203.28571428571428</ele><time>2026-04-08T08:40:08.006Z</time></trkpt><trkpt lat="38.2356326" lon="15.4996531"><ele>203.57142857142856</ele><time>2026-04-08T08:40:12.005Z</time></trkpt><trkpt lat="38.2355459" lon="15.499632"><ele>203.85714285714286</ele><time>2026-04-08T08:40:16.006Z</time></trkpt><trkpt lat="38.2354759" lon="15.4995977"><ele>204.14285714285714</ele><time>2026-04-08T08:40:19.006Z</time></trkpt><trkpt lat="38.2354139" lon="15.4995837"><ele>204.42857142857142</ele><time>2026-04-08T08:40:23.006Z</time></trkpt><trkpt lat="38.2353445" lon="15.4995903"><ele>204.71428571428572</ele><time>2026-04-08T08:40:26.005Z</time></trkpt><trkpt lat="38.2352659" lon="15.4996247"><ele>205.0</ele><time>2026-04-08T08:40:29.005Z</time></trkpt><trkpt lat="38.2351985" lon="15.4995867"><ele>205.0</ele><time>2026-04-08T08:40:41.005Z</time></trkpt><trkpt lat="38.2351334" lon="15.4996233"><ele>205.0</ele><time>2026-04-08T08:40:46.006Z</time></trkpt><trkpt lat="38.2350707" lon="15.4996401"><ele>205.0</ele><time>2026-04-08T08:40:49.006Z</time></trkpt><trkpt lat="38.2349873" lon="15.4996616"><ele>205.0</ele><time>2026-04-08T08:40:52.006Z</time></trkpt><trkpt lat="38.2349333" lon="15.4997241"><ele>205.0</ele><time>2026-04-08T08:40:54.005Z</time></trkpt><trkpt lat="38.2348711" lon="15.4997745"><ele>205.0</ele><time>2026-04-08T08:40:56.006Z</time></trkpt><trkpt lat="38.2347967" lon="15.4998112"><ele>205.0</ele><time>2026-04-08T08:40:58.005Z</time></trkpt><trkpt lat="38.2347123" lon="15.4998455"><ele>206.33333333333331</ele><time>2026-04-08T08:41:00.005Z</time></trkpt><trkpt lat="38.2346394" lon="15.4998877"><ele>207.66666666666666</ele><time>2026-04-08T08:41:02.006Z</time></trkpt><trkpt lat="38.2345559" lon="15.4998824"><ele>209.0</ele><time>2026-04-08T08:41:05.005Z</time></trkpt><trkpt lat="38.2344948" lon="15.4998569"><ele>210.33333333333331</ele><time>2026-04-08T08:41:07.004Z</time></trkpt><trkpt lat="38.2344253" lon="15.4999154"><ele>211.66666666666666</ele><time>2026-04-08T08:41:11.006Z</time></trkpt><trkpt lat="38.2343614" lon="15.4999348"><ele>213.0</ele><time>2026-04-08T08:41:18.006Z</time></trkpt><trkpt lat="38.2342783" lon="15.4999782"><ele>213.0</ele><time>2026-04-08T08:41:21.006Z</time></trkpt><trkpt lat="38.2342106" lon="15.5000459"><ele>213.0</ele><time>2026-04-08T08:41:23.006Z</time></trkpt><trkpt lat="38.2341863" lon="15.5001218"><ele>213.0</ele><time>2026-04-08T08:41:25.006Z</time></trkpt><trkpt lat="38.2341661" lon="15.5002373"><ele>213.0</ele><time>2026-04-08T08:41:27.006Z</time></trkpt><trkpt lat="38.2341579" lon="15.5003612"><ele>213.0</ele><time>2026-04-08T08:41:29.006Z</time></trkpt><trkpt lat="38.2341766" lon="15.5004681"><ele>213.0</ele><time>2026-04-08T08:41:31.006Z</time></trkpt><trkpt lat="38.2341974" lon="15.5005765"><ele>212.4</ele><time>2026-04-08T08:41:33.005Z</time></trkpt><trkpt lat="38.2342187" lon="15.5007279"><ele>211.8</ele><time>2026-04-08T08:41:35.005Z</time></trkpt><trkpt lat="38.2342392" lon="15.5008084"><ele>211.2</ele><time>2026-04-08T08:41:36.006Z</time></trkpt><trkpt lat="38.2342745" lon="15.5009516"><ele>210.6</ele><time>2026-04-08T08:41:38.005Z</time></trkpt><trkpt lat="38.2342946" lon="15.5010913"><ele>210.0</ele><time>2026-04-08T08:41:40.004Z</time></trkpt><trkpt lat="38.2342892" lon="15.5012049"><ele>211.33333333333334</ele><time>2026-04-08T08:41:42.004Z</time></trkpt><trkpt lat="38.2342351" lon="15.5012917"><ele>212.66666666666669</ele><time>2026-04-08T08:41:44.006Z</time></trkpt><trkpt lat="38.234165" lon="15.5013577"><ele>214.0</ele><time>2026-04-08T08:41:46.006Z</time></trkpt><trkpt lat="38.234081" lon="15.5014182"><ele>215.33333333333334</ele><time>2026-04-08T08:41:48.005Z</time></trkpt><trkpt lat="38.2339941" lon="15.5014714"><ele>216.66666666666669</ele><time>2026-04-08T08:41:50.005Z</time></trkpt><trkpt lat="38.233919" lon="15.5014956"><ele>218.0</ele><time>2026-04-08T08:41:52.005Z</time></trkpt><trkpt lat="38.2338468" lon="15.5015237"><ele>218.50000000000003</ele><time>2026-04-08T08:41:55.005Z</time></trkpt><trkpt lat="38.2337741" lon="15.5015308"><ele>219.0</ele><time>2026-04-08T08:42:23.006Z</time></trkpt><trkpt lat="38.2336978" lon="15.5015502"><ele>219.5</ele><time>2026-04-08T08:42:25.005Z</time></trkpt><trkpt lat="38.2336579" lon="15.5016575"><ele>220.0</ele><time>2026-04-08T08:42:28.005Z</time></trkpt><trkpt lat="38.2336213" lon="15.5017544"><ele>220.50000000000003</ele><time>2026-04-08T08:42:30.005Z</time></trkpt><trkpt lat="38.2335594" lon="15.5017938"><ele>221.0</ele><time>2026-04-08T08:42:33.006Z</time></trkpt><trkpt lat="38.233507" lon="15.5018427"><ele>221.00000000000003</ele><time>2026-04-08T08:42:38.005Z</time></trkpt><trkpt lat="38.2334622" lon="15.5019192"><ele>221.0</ele><time>2026-04-08T08:42:41.006Z</time></trkpt><trkpt lat="38.2333967" lon="15.5019595"><ele>221.0</ele><time>2026-04-08T08:42:44.004Z</time></trkpt><trkpt lat="38.2333435" lon="15.5020146"><ele>221.0</ele><time>2026-04-08T08:42:46.005Z</time></trkpt><trkpt lat="38.2332656" lon="15.5020892"><ele>221.00000000000003</ele><time>2026-04-08T08:42:48.006Z</time></trkpt><trkpt lat="38.2331994" lon="15.5021531"><ele>221.0</ele><time>2026-04-08T08:42:50.006Z</time></trkpt><trkpt lat="38.2331256" lon="15.5022015"><ele>222.16666666666669</ele><time>2026-04-08T08:42:52.005Z</time></trkpt><trkpt lat="38.2330533" lon="15.5022459"><ele>223.33333333333334</ele><time>2026-04-08T08:42:54.006Z</time></trkpt><trkpt lat="38.2329795" lon="15.5022769"><ele>224.5</ele><time>2026-04-08T08:43:02.006Z</time></trkpt><trkpt lat="38.2329152" lon="15.5023196"><ele>225.66666666666669</ele><time>2026-04-08T08:43:05.006Z</time></trkpt><trkpt lat="38.2328287" lon="15.5023514"><ele>226.83333333333334</ele><time>2026-04-08T08:43:08.005Z</time></trkpt><trkpt lat="38.2327437" lon="15.5023796"><ele>228.0</ele><time>2026-04-08T08:43:11.005Z</time></trkpt><trkpt lat="38.232673" lon="15.5024468"><ele>228.0</ele><time>2026-04-08T08:43:14.005Z</time></trkpt><trkpt lat="38.2326011" lon="15.5025091"><ele>228.0</ele><time>2026-04-08T08:43:16.005Z</time></trkpt><trkpt lat="38.2325305" lon="15.5025638"><ele>228.0</ele><time>2026-04-08T08:43:18.006Z</time></trkpt><trkpt lat="38.2324464" lon="15.5026459"><ele>228.0</ele><time>2026-04-08T08:43:20.006Z</time></trkpt><trkpt lat="38.2323742" lon="15.5027163"><ele>228.0</ele><time>2026-04-08T08:43:22.006Z</time></trkpt><trkpt lat="38.2323133" lon="15.5027524"><ele>228.0</ele><time>2026-04-08T08:43:24.006Z</time></trkpt><trkpt lat="38.2322463" lon="15.5028129"><ele>229.33333333333334</ele><time>2026-04-08T08:43:26.006Z</time></trkpt><trkpt lat="38.2321808" lon="15.5028676"><ele>230.66666666666669</ele><time>2026-04-08T08:43:29.005Z</time></trkpt><trkpt lat="38.2320872" lon="15.5029496"><ele>232.0</ele><time>2026-04-08T08:46:31.005Z</time></trkpt><trkpt lat="38.2320277" lon="15.5029865"><ele>233.33333333333334</ele><time>2026-04-08T08:46:33.006Z</time></trkpt><trkpt lat="38.231958" lon="15.5030227"><ele>234.66666666666669</ele><time>2026-04-08T08:46:35.005Z</time></trkpt><trkpt lat="38.2318829" lon="15.5030678"><ele>236.0</ele><time>2026-04-08T08:46:38.005Z</time></trkpt><trkpt lat="38.2318078" lon="15.5031349"><ele>236.0</ele><time>2026-04-08T08:46:42.006Z</time></trkpt><trkpt lat="38.2317503" lon="15.5031742"><ele>236.0</ele><time>2026-04-08T08:46:46.005Z</time></trkpt><trkpt lat="38.2316904" lon="15.5032196"><ele>236.0</ele><time>2026-04-08T08:46:49.005Z</time></trkpt><trkpt lat="38.2316135" lon="15.5032726"><ele>236.0</ele><time>2026-04-08T08:46:52.005Z</time></trkpt><trkpt lat="38.2315533" lon="15.5033347"><ele>236.0</ele><time>2026-04-08T08:46:54.005Z</time></trkpt><trkpt lat="38.2314987" lon="15.5033819"><ele>236.0</ele><time>2026-04-08T08:46:56.005Z</time></trkpt><trkpt lat="38.2314424" lon="15.5034182"><ele>236.0</ele><time>2026-04-08T08:46:58.005Z</time></trkpt><trkpt lat="38.2313781" lon="15.5034921"><ele>236.83333333333334</ele><time>2026-04-08T08:47:01.006Z</time></trkpt><trkpt lat="38.2313447" lon="15.5036046"><ele>237.66666666666669</ele><time>2026-04-08T08:47:04.004Z</time></trkpt><trkpt lat="38.2312939" lon="15.5036952"><ele>238.5</ele><time>2026-04-08T08:47:06.005Z</time></trkpt><trkpt lat="38.2312486" lon="15.503758"><ele>239.33333333333331</ele><time>2026-04-08T08:47:09.005Z</time></trkpt><trkpt lat="38.2311995" lon="15.5038182"><ele>240.16666666666666</ele><time>2026-04-08T08:47:14.006Z</time></trkpt><trkpt lat="38.2311212" lon="15.5038652"><ele>241.0</ele><time>2026-04-08T08:47:17.006Z</time></trkpt><trkpt lat="38.2310538" lon="15.5039367"><ele>241.0</ele><time>2026-04-08T08:47:20.006Z</time></trkpt><trkpt lat="38.2310235" lon="15.504021"><ele>241.00000000000003</ele><time>2026-04-08T08:47:23.006Z</time></trkpt><trkpt lat="38.2309901" lon="15.5041124"><ele>241.0</ele><time>2026-04-08T08:47:25.004Z</time></trkpt><trkpt lat="38.230951" lon="15.5041802"><ele>241.0</ele><time>2026-04-08T08:47:27.006Z</time></trkpt><trkpt lat="38.2309072" lon="15.5042572"><ele>241.00000000000003</ele><time>2026-04-08T08:47:29.005Z</time></trkpt><trkpt lat="38.2308713" lon="15.5043413"><ele>241.0</ele><time>2026-04-08T08:47:31.005Z</time></trkpt><trkpt lat="38.2308431" lon="15.5044277"><ele>241.0</ele><time>2026-04-08T08:47:33.004Z</time></trkpt><trkpt lat="38.2308024" lon="15.5045201"><ele>242.16666666666666</ele><time>2026-04-08T08:47:35.006Z</time></trkpt><trkpt lat="38.2307316" lon="15.5046154"><ele>243.33333333333331</ele><time>2026-04-08T08:47:37.004Z</time></trkpt><trkpt lat="38.2306867" lon="15.504679"><ele>244.5</ele><time>2026-04-08T08:47:39.006Z</time></trkpt><trkpt lat="38.2306307" lon="15.5047258"><ele>245.66666666666669</ele><time>2026-04-08T08:47:48.006Z</time></trkpt><trkpt lat="38.2305666" lon="15.5047895"><ele>246.83333333333334</ele><time>2026-04-08T08:47:51.006Z</time></trkpt><trkpt lat="38.2305028" lon="15.5048513"><ele>248.0</ele><time>2026-04-08T08:47:53.006Z</time></trkpt><trkpt lat="38.2304579" lon="15.5049149"><ele>248.00000000000003</ele><time>2026-04-08T08:47:55.006Z</time></trkpt><trkpt lat="38.2303999" lon="15.5049803"><ele>248.0</ele><time>2026-04-08T08:47:58.005Z</time></trkpt><trkpt lat="38.2303419" lon="15.5050127"><ele>248.0</ele><time>2026-04-08T08:48:10.005Z</time></trkpt><trkpt lat="38.2303202" lon="15.5050967"><ele>248.0</ele><time>2026-04-08T08:48:14.005Z</time></trkpt><trkpt lat="38.2303195" lon="15.5051988"><ele>248.00000000000003</ele><time>2026-04-08T08:48:16.005Z</time></trkpt><trkpt lat="38.2303108" lon="15.5053147"><ele>248.0</ele><time>2026-04-08T08:48:18.006Z</time></trkpt><trkpt lat="38.2302962" lon="15.5054366"><ele>248.8</ele><time>2026-04-08T08:48:20.006Z</time></trkpt><trkpt lat="38.2302922" lon="15.5055585"><ele>249.60000000000002</ele><time>2026-04-08T08:48:22.007Z</time></trkpt><trkpt lat="38.2302714" lon="15.5056595"><ele>250.39999999999998</ele><time>2026-04-08T08:48:24.005Z</time></trkpt><trkpt lat="38.2302442" lon="15.5057704"><ele>251.2</ele><time>2026-04-08T08:48:26.005Z</time></trkpt><trkpt lat="38.230209" lon="15.5058702"><ele>252.0</ele><time>2026-04-08T08:48:28.005Z</time></trkpt><trkpt lat="38.2301682" lon="15.5059906"><ele>252.0</ele><time>2026-04-08T08:48:30.006Z</time></trkpt><trkpt lat="38.2301513" lon="15.5060712"><ele>252.0</ele><time>2026-04-08T08:48:31.006Z</time></trkpt><trkpt lat="38.2301329" lon="15.5061508"><ele>252.0</ele><time>2026-04-08T08:48:32.005Z</time></trkpt><trkpt lat="38.2300889" lon="15.5062603"><ele>252.0</ele><time>2026-04-08T08:48:34.006Z</time></trkpt><trkpt lat="38.2300494" lon="15.5063324"><ele>252.0</ele><time>2026-04-08T08:48:54.005Z</time></trkpt><trkpt lat="38.2301169" lon="15.5063982"><ele>252.0</ele><time>2026-04-08T08:49:09.005Z</time></trkpt><trkpt lat="38.2301874" lon="15.50644"><ele>252.28571428571428</ele><time>2026-04-08T08:49:13.005Z</time></trkpt><trkpt lat="38.230264" lon="15.5064251"><ele>252.57142857142856</ele><time>2026-04-08T08:51:09.006Z</time></trkpt><trkpt lat="38.2302946" lon="15.5063547"><ele>252.85714285714286</ele><time>2026-04-08T08:51:13.004Z</time></trkpt><trkpt lat="38.2303478" lon="15.5062995"><ele>253.14285714285714</ele><time>2026-04-08T08:51:17.006Z</time></trkpt><trkpt lat="38.2304086" lon="15.5062503"><ele>253.42857142857142</ele><time>2026-04-08T08:51:34.004Z</time></trkpt><trkpt lat="38.2303562" lon="15.5063079"><ele>253.71428571428572</ele><time>2026-04-08T08:52:40.006Z</time></trkpt><trkpt lat="38.2303054" lon="15.5063608"><ele>254.0</ele><time>2026-04-08T08:52:55.006Z</time></trkpt><trkpt lat="38.2302706" lon="15.5064369"><ele>254.0</ele><time>2026-04-08T08:53:03.006Z</time></trkpt><trkpt lat="38.2302047" lon="15.5064411"><ele>254.0</ele><time>2026-04-08T08:53:08.005Z</time></trkpt><trkpt lat="38.2301211" lon="15.5064077"><ele>254.0</ele><time>2026-04-08T08:53:16.004Z</time></trkpt><trkpt lat="38.2300556" lon="15.5063811"><ele>254.0</ele><time>2026-04-08T08:53:18.006Z</time></trkpt><trkpt lat="38.2300021" lon="15.5064293"><ele>254.0</ele><time>2026-04-08T08:53:21.005Z</time></trkpt><trkpt lat="38.2299679" lon="15.5065068"><ele>254.0</ele><time>2026-04-08T08:53:43.006Z</time></trkpt><trkpt lat="38.2299212" lon="15.5066043"><ele>254.0</ele><time>2026-04-08T08:53:46.005Z</time></trkpt><trkpt lat="38.229871" lon="15.5066634"><ele>254.00000000000003</ele><time>2026-04-08T08:53:48.006Z</time></trkpt><trkpt lat="38.2298144" lon="15.5067091"><ele>254.0</ele><time>2026-04-08T08:53:50.006Z</time></trkpt><trkpt lat="38.2297395" lon="15.506724"><ele>254.0</ele><time>2026-04-08T08:53:52.005Z</time></trkpt><trkpt lat="38.2296695" lon="15.5067458"><ele>254.0</ele><time>2026-04-08T08:53:54.005Z</time></trkpt><trkpt lat="38.2296197" lon="15.5068157"><ele>254.00000000000003</ele><time>2026-04-08T08:53:57.006Z</time></trkpt><trkpt lat="38.2295417" lon="15.5068672"><ele>254.0</ele><time>2026-04-08T08:54:00.006Z</time></trkpt><trkpt lat="38.2294561" lon="15.506919"><ele>254.66666666666669</ele><time>2026-04-08T08:54:03.006Z</time></trkpt><trkpt lat="38.2293843" lon="15.506959"><ele>255.33333333333334</ele><time>2026-04-08T08:54:05.006Z</time></trkpt><trkpt lat="38.2293146" lon="15.5070173"><ele>256.0</ele><time>2026-04-08T08:54:07.005Z</time></trkpt><trkpt lat="38.2292328" lon="15.5070788"><ele>256.6666666666667</ele><time>2026-04-08T08:54:09.004Z</time></trkpt><trkpt lat="38.2291651" lon="15.507151"><ele>257.3333333333333</ele><time>2026-04-08T08:54:11.005Z</time></trkpt><trkpt lat="38.2291154" lon="15.5072416"><ele>258.0</ele><time>2026-04-08T08:54:13.005Z</time></trkpt><trkpt lat="38.229075" lon="15.5073289"><ele>258.5</ele><time>2026-04-08T08:54:15.005Z</time></trkpt><trkpt lat="38.2290356" lon="15.5074159"><ele>259.0</ele><time>2026-04-08T08:54:17.005Z</time></trkpt><trkpt lat="38.2290094" lon="15.5075113"><ele>259.5</ele><time>2026-04-08T08:54:19.006Z</time></trkpt><trkpt lat="38.2289763" lon="15.5076088"><ele>260.0</ele><time>2026-04-08T08:54:21.006Z</time></trkpt><trkpt lat="38.228937" lon="15.507703"><ele>260.5</ele><time>2026-04-08T08:54:23.006Z</time></trkpt><trkpt lat="38.2288894" lon="15.5077824"><ele>261.0</ele><time>2026-04-08T08:54:25.005Z</time></trkpt><trkpt lat="38.228773" lon="15.5078345"><ele>263.6666666666667</ele><time>2026-04-08T09:00:44.005Z</time></trkpt><trkpt lat="38.2286947" lon="15.5078424"><ele>266.3333333333333</ele><time>2026-04-08T09:00:46.005Z</time></trkpt><trkpt lat="38.2286285" lon="15.5078623"><ele>269.0</ele><time>2026-04-08T09:00:49.005Z</time></trkpt><trkpt lat="38.2285525" lon="15.5078903"><ele>271.66666666666663</ele><time>2026-04-08T09:00:58.005Z</time></trkpt><trkpt lat="38.2284625" lon="15.5079461"><ele>274.3333333333333</ele><time>2026-04-08T09:01:01.006Z</time></trkpt><trkpt lat="38.2283943" lon="15.5079803"><ele>277.0</ele><time>2026-04-08T09:01:03.006Z</time></trkpt><trkpt lat="38.2283272" lon="15.5080131"><ele>277.0</ele><time>2026-04-08T09:01:05.006Z</time></trkpt><trkpt lat="38.2282467" lon="15.5080695"><ele>277.0</ele><time>2026-04-08T09:01:08.004Z</time></trkpt><trkpt lat="38.2281648" lon="15.5080964"><ele>277.0</ele><time>2026-04-08T09:01:10.006Z</time></trkpt><trkpt lat="38.2280737" lon="15.5080682"><ele>277.0</ele><time>2026-04-08T09:01:12.006Z</time></trkpt><trkpt lat="38.2280106" lon="15.5080474"><ele>277.0</ele><time>2026-04-08T09:01:14.005Z</time></trkpt><trkpt lat="38.2279159" lon="15.5080592"><ele>277.0</ele><time>2026-04-08T09:01:17.006Z</time></trkpt><trkpt lat="38.2278428" lon="15.5080534"><ele>278.66666666666663</ele><time>2026-04-08T09:01:19.005Z</time></trkpt><trkpt lat="38.2277763" lon="15.5080983"><ele>280.3333333333333</ele><time>2026-04-08T09:01:21.005Z</time></trkpt><trkpt lat="38.2276856" lon="15.5081239"><ele>282.0</ele><time>2026-04-08T09:01:23.005Z</time></trkpt><trkpt lat="38.2276173" lon="15.5081734"><ele>283.6666666666667</ele><time>2026-04-08T09:01:25.005Z</time></trkpt><trkpt lat="38.2275524" lon="15.5082319"><ele>285.33333333333337</ele><time>2026-04-08T09:01:27.006Z</time></trkpt><trkpt lat="38.227493" lon="15.5082912"><ele>287.0</ele><time>2026-04-08T09:01:33.006Z</time></trkpt><trkpt lat="38.2274439" lon="15.5083589"><ele>287.0</ele><time>2026-04-08T09:01:45.005Z</time></trkpt><trkpt lat="38.2273977" lon="15.5084263"><ele>287.0</ele><time>2026-04-08T09:02:01.005Z</time></trkpt><trkpt lat="38.2273171" lon="15.5084513"><ele>287.0</ele><time>2026-04-08T09:02:24.005Z</time></trkpt><trkpt lat="38.2272388" lon="15.5084761"><ele>287.0</ele><time>2026-04-08T09:02:27.006Z</time></trkpt><trkpt lat="38.2271697" lon="15.5085015"><ele>287.0</ele><time>2026-04-08T09:02:30.006Z</time></trkpt><trkpt lat="38.2270962" lon="15.5085139"><ele>287.0</ele><time>2026-04-08T09:02:33.005Z</time></trkpt><trkpt lat="38.2270204" lon="15.5085115"><ele>288.42857142857144</ele><time>2026-04-08T09:06:41.005Z</time></trkpt><trkpt lat="38.2269587" lon="15.5084782"><ele>289.8571428571429</ele><time>2026-04-08T09:06:46.005Z</time></trkpt><trkpt lat="38.2268825" lon="15.5084473"><ele>291.2857142857143</ele><time>2026-04-08T09:06:49.004Z</time></trkpt><trkpt lat="38.226816" lon="15.5084108"><ele>292.7142857142857</ele><time>2026-04-08T09:06:51.006Z</time></trkpt><trkpt lat="38.2267443" lon="15.50837"><ele>294.14285714285717</ele><time>2026-04-08T09:06:54.005Z</time></trkpt><trkpt lat="38.2266746" lon="15.5083591"><ele>295.57142857142856</ele><time>2026-04-08T09:06:57.006Z</time></trkpt><trkpt lat="38.2266108" lon="15.5083378"><ele>297.0</ele><time>2026-04-08T09:07:01.006Z</time></trkpt><trkpt lat="38.2265449" lon="15.5083208"><ele>297.0</ele><time>2026-04-08T09:07:03.006Z</time></trkpt><trkpt lat="38.2264909" lon="15.5083686"><ele>297.0</ele><time>2026-04-08T09:07:22.006Z</time></trkpt><trkpt lat="38.2264046" lon="15.5084741"><ele>297.0</ele><time>2026-04-08T09:10:17.004Z</time></trkpt><trkpt lat="38.2263361" lon="15.5085012"><ele>297.0</ele><time>2026-04-08T09:10:28.006Z</time></trkpt><trkpt lat="38.2262894" lon="15.5085652"><ele>297.0</ele><time>2026-04-08T09:10:32.005Z</time></trkpt><trkpt lat="38.2262533" lon="15.5086411"><ele>297.0</ele><time>2026-04-08T09:10:34.004Z</time></trkpt><trkpt lat="38.226213" lon="15.5087065"><ele>300.1666666666667</ele><time>2026-04-08T09:10:36.006Z</time></trkpt><trkpt lat="38.2261603" lon="15.5087859"><ele>303.3333333333333</ele><time>2026-04-08T09:10:38.005Z</time></trkpt><trkpt lat="38.226114" lon="15.5088877"><ele>306.5</ele><time>2026-04-08T09:10:42.006Z</time></trkpt><trkpt lat="38.2260626" lon="15.5089662"><ele>309.66666666666663</ele><time>2026-04-08T09:10:45.004Z</time></trkpt><trkpt lat="38.2260204" lon="15.5090561"><ele>312.8333333333333</ele><time>2026-04-08T09:10:48.005Z</time></trkpt><trkpt lat="38.2259586" lon="15.509078"><ele>316.0</ele><time>2026-04-08T09:10:51.006Z</time></trkpt><trkpt lat="38.2258814" lon="15.5090924"><ele>316.00000000000006</ele><time>2026-04-08T09:10:55.005Z</time></trkpt><trkpt lat="38.2258195" lon="15.5091301"><ele>316.0</ele><time>2026-04-08T09:11:03.005Z</time></trkpt><trkpt lat="38.2257575" lon="15.5091007"><ele>316.0</ele><time>2026-04-08T09:11:08.006Z</time></trkpt><trkpt lat="38.2256904" lon="15.5090604"><ele>316.0</ele><time>2026-04-08T09:11:14.004Z</time></trkpt><trkpt lat="38.2256155" lon="15.5089801"><ele>316.0</ele><time>2026-04-08T09:12:05.005Z</time></trkpt><trkpt lat="38.225573" lon="15.5089108"><ele>316.00000000000006</ele><time>2026-04-08T09:12:08.005Z</time></trkpt><trkpt lat="38.2255265" lon="15.5088438"><ele>316.0</ele><time>2026-04-08T09:12:10.006Z</time></trkpt><trkpt lat="38.2254736" lon="15.5087984"><ele>317.66666666666663</ele><time>2026-04-08T09:12:12.006Z</time></trkpt><trkpt lat="38.225391" lon="15.5087664"><ele>319.3333333333333</ele><time>2026-04-08T09:12:15.004Z</time></trkpt><trkpt lat="38.2253268" lon="15.5087657"><ele>321.0</ele><time>2026-04-08T09:12:19.005Z</time></trkpt><trkpt lat="38.2252633" lon="15.5087847"><ele>322.6666666666667</ele><time>2026-04-08T09:12:22.005Z</time></trkpt><trkpt lat="38.2252006" lon="15.5088172"><ele>324.33333333333337</ele><time>2026-04-08T09:12:25.006Z</time></trkpt><trkpt lat="38.2251387" lon="15.5088578"><ele>326.0</ele><time>2026-04-08T09:12:29.006Z</time></trkpt><trkpt lat="38.2250581" lon="15.5089295"><ele>326.0</ele><time>2026-04-08T09:12:33.006Z</time></trkpt><trkpt lat="38.2249887" lon="15.5089796"><ele>326.0</ele><time>2026-04-08T09:12:35.005Z</time></trkpt><trkpt lat="38.2249226" lon="15.5089904"><ele>326.0</ele><time>2026-04-08T09:12:37.006Z</time></trkpt><trkpt lat="38.2248545" lon="15.5089929"><ele>326.0</ele><time>2026-04-08T09:12:51.006Z</time></trkpt></trkseg><trkseg><trkpt lat="38.2248168" lon="15.5091966"><ele>353.0</ele><time>2026-04-08T10:03:26.003Z</time></trkpt></trkseg><trkseg><trkpt lat="38.2247313" lon="15.5093709"><ele>342.0</ele><time>2026-04-08T11:03:53.003Z</time></trkpt><trkpt lat="38.2246347" lon="15.5094519"><ele>342.0</ele><time>2026-04-08T11:05:16.004Z</time></trkpt><trkpt lat="38.2245663" lon="15.509488"><ele>342.0</ele><time>2026-04-08T11:05:29.004Z</time></trkpt><trkpt lat="38.2245032" lon="15.5095114"><ele>342.0</ele><time>2026-04-08T11:05:40.003Z</time></trkpt><trkpt lat="38.2244408" lon="15.5095533"><ele>342.0</ele><time>2026-04-08T11:06:06.002Z</time></trkpt><trkpt lat="38.2243746" lon="15.5095773"><ele>338.0</ele><time>2026-04-08T11:06:09.003Z</time></trkpt></trkseg><trkseg><trkpt lat="38.2231646" lon="15.5101672"><ele>350.0</ele><time>2026-04-08T12:15:12.004Z</time></trkpt><trkpt lat="38.2232119" lon="15.5100984"><ele>350.0</ele><time>2026-04-08T12:15:18.004Z</time></trkpt><trkpt lat="38.2233009" lon="15.5100555"><ele>350.0</ele><time>2026-04-08T12:15:53.005Z</time></trkpt><trkpt lat="38.2233069" lon="15.5099542"><ele>350.0</ele><time>2026-04-08T12:16:12.003Z</time></trkpt><trkpt lat="38.2233748" lon="15.5099455"><ele>350.0</ele><time>2026-04-08T12:16:44.01Z</time></trkpt><trkpt lat="38.2234568" lon="15.5099123"><ele>350.0</ele><time>2026-04-08T12:16:47Z</time></trkpt><trkpt lat="38.2235169" lon="15.5098814"><ele>350.0</ele><time>2026-04-08T12:16:50.001Z</time></trkpt><trkpt lat="38.2235779" lon="15.5098194"><ele>350.0</ele><time>2026-04-08T12:16:53.999Z</time></trkpt><trkpt lat="38.2236265" lon="15.5097677"><ele>350.0</ele><time>2026-04-08T12:17:05Z</time></trkpt><trkpt lat="38.2236884" lon="15.5097225"><ele>350.0</ele><time>2026-04-08T12:17:10.006Z</time></trkpt><trkpt lat="38.2237534" lon="15.509717"><ele>350.0</ele><time>2026-04-08T12:17:19.007Z</time></trkpt><trkpt lat="38.2238225" lon="15.5096565"><ele>350.0</ele><time>2026-04-08T12:17:46.002Z</time></trkpt><trkpt lat="38.2238614" lon="15.5095872"><ele>350.0</ele><time>2026-04-08T12:17:53.011Z</time></trkpt><trkpt lat="38.22393" lon="15.5095296"><ele>348.6666666666667</ele><time>2026-04-08T12:18:16.002Z</time></trkpt><trkpt lat="38.2239952" lon="15.5095027"><ele>347.33333333333337</ele><time>2026-04-08T12:18:19.998Z</time></trkpt><trkpt lat="38.224062" lon="15.5094726"><ele>346.0</ele><time>2026-04-08T12:18:26.008Z</time></trkpt><trkpt lat="38.2241294" lon="15.5095055"><ele>344.6666666666667</ele><time>2026-04-08T12:18:35.006Z</time></trkpt><trkpt lat="38.2241952" lon="15.5095143"><ele>343.3333333333333</ele><time>2026-04-08T12:18:41.995Z</time></trkpt><trkpt lat="38.2242692" lon="15.5095371"><ele>342.0</ele><time>2026-04-08T12:18:47.01Z</time></trkpt><trkpt lat="38.2243872" lon="15.5095499"><ele>342.0</ele><time>2026-04-08T12:20:39.006Z</time></trkpt><trkpt lat="38.2244638" lon="15.5095751"><ele>342.0</ele><time>2026-04-08T12:20:57.008Z</time></trkpt><trkpt lat="38.2243926" lon="15.5095643"><ele>342.0</ele><time>2026-04-08T12:21:05.01Z</time></trkpt><trkpt lat="38.2243306" lon="15.5095835"><ele>342.0</ele><time>2026-04-08T12:21:10.009Z</time></trkpt><trkpt lat="38.2244234" lon="15.5095924"><ele>342.0</ele><time>2026-04-08T12:21:56.01Z</time></trkpt><trkpt lat="38.2244894" lon="15.5096261"><ele>342.0</ele><time>2026-04-08T12:22:01.996Z</time></trkpt><trkpt lat="38.2245526" lon="15.5096726"><ele>342.0</ele><time>2026-04-08T12:22:08.072Z</time></trkpt><trkpt lat="38.2246063" lon="15.5095222"><ele>342.0</ele><time>2026-04-08T12:22:09.01Z</time></trkpt><trkpt lat="38.2246418" lon="15.5094501"><ele>342.0</ele><time>2026-04-08T12:22:11.011Z</time></trkpt><trkpt lat="38.2246965" lon="15.5093954"><ele>342.0</ele><time>2026-04-08T12:22:16.076Z</time></trkpt><trkpt lat="38.2247582" lon="15.5093788"><ele>342.0</ele><time>2026-04-08T12:22:56.028Z</time></trkpt><trkpt lat="38.2247774" lon="15.5092774"><ele>342.0</ele><time>2026-04-08T12:40:13.011Z</time></trkpt><trkpt lat="38.2248367" lon="15.509224"><ele>341.99999999999994</ele><time>2026-04-08T12:43:41.011Z</time></trkpt><trkpt lat="38.2247747" lon="15.5091995"><ele>342.0</ele><time>2026-04-08T12:45:40.011Z</time></trkpt><trkpt lat="38.2247906" lon="15.5091084"><ele>342.0</ele><time>2026-04-08T12:46:17.011Z</time></trkpt><trkpt lat="38.2248149" lon="15.5091874"><ele>342.0</ele><time>2026-04-08T12:47:31.011Z</time></trkpt><trkpt lat="38.2248129" lon="15.5092678"><ele>342.0</ele><time>2026-04-08T12:47:37.01Z</time></trkpt><trkpt lat="38.2247494" lon="15.5093039"><ele>341.99999999999994</ele><time>2026-04-08T12:47:55.01Z</time></trkpt><trkpt lat="38.2247433" lon="15.5092172"><ele>342.0</ele><time>2026-04-08T12:54:54.01Z</time></trkpt><trkpt lat="38.2247806" lon="15.5091238"><ele>341.99999999999994</ele><time>2026-04-08T13:04:11.01Z</time></trkpt><trkpt lat="38.2248244" lon="15.5092033"><ele>342.0</ele><time>2026-04-08T13:06:25.01Z</time></trkpt><trkpt lat="38.2247582" lon="15.509128"><ele>342.0</ele><time>2026-04-08T13:15:29.01Z</time></trkpt><trkpt lat="38.2247469" lon="15.5092171"><ele>342.0</ele><time>2026-04-08T13:16:21.011Z</time></trkpt><trkpt lat="38.2247445" lon="15.5093006"><ele>342.0</ele><time>2026-04-08T13:16:27.064Z</time></trkpt><trkpt lat="38.2247788" lon="15.5092276"><ele>341.99999999999994</ele><time>2026-04-08T13:16:55.957Z</time></trkpt><trkpt lat="38.2247993" lon="15.5091482"><ele>342.0</ele><time>2026-04-08T13:18:03.072Z</time></trkpt><trkpt lat="38.2248085" lon="15.5090679"><ele>339.3333333333333</ele><time>2026-04-08T13:18:20.011Z</time></trkpt><trkpt lat="38.2248221" lon="15.508984"><ele>336.6666666666667</ele><time>2026-04-08T13:26:18.01Z</time></trkpt><trkpt lat="38.2248653" lon="15.5089238"><ele>334.0</ele><time>2026-04-08T13:26:22.01Z</time></trkpt><trkpt lat="38.2249413" lon="15.5089273"><ele>331.33333333333337</ele><time>2026-04-08T13:26:27.011Z</time></trkpt><trkpt lat="38.2250571" lon="15.5088605"><ele>328.6666666666667</ele><time>2026-04-08T13:26:32.01Z</time></trkpt><trkpt lat="38.2251215" lon="15.5088269"><ele>326.0</ele><time>2026-04-08T13:26:36.01Z</time></trkpt><trkpt lat="38.2251934" lon="15.508791"><ele>326.0</ele><time>2026-04-08T13:26:40.011Z</time></trkpt><trkpt lat="38.2252621" lon="15.5087696"><ele>326.0</ele><time>2026-04-08T13:26:43.011Z</time></trkpt><trkpt lat="38.225343" lon="15.5087576"><ele>326.0</ele><time>2026-04-08T13:26:47.01Z</time></trkpt><trkpt lat="38.2254138" lon="15.508788"><ele>326.0</ele><time>2026-04-08T13:26:50.01Z</time></trkpt><trkpt lat="38.2254955" lon="15.5088206"><ele>326.0</ele><time>2026-04-08T13:26:53.011Z</time></trkpt><trkpt lat="38.2255554" lon="15.5088798"><ele>326.0</ele><time>2026-04-08T13:26:56.011Z</time></trkpt><trkpt lat="38.2256033" lon="15.5089607"><ele>324.33333333333337</ele><time>2026-04-08T13:26:59.011Z</time></trkpt><trkpt lat="38.2256562" lon="15.5090455"><ele>322.6666666666667</ele><time>2026-04-08T13:27:01.01Z</time></trkpt><trkpt lat="38.2257077" lon="15.5090981"><ele>321.0</ele><time>2026-04-08T13:27:12.01Z</time></trkpt><trkpt lat="38.2257772" lon="15.5091494"><ele>319.3333333333333</ele><time>2026-04-08T13:27:26.01Z</time></trkpt><trkpt lat="38.2258392" lon="15.5091686"><ele>317.66666666666663</ele><time>2026-04-08T13:27:40.011Z</time></trkpt><trkpt lat="38.2258961" lon="15.50913"><ele>316.0</ele><time>2026-04-08T13:27:43.011Z</time></trkpt><trkpt lat="38.2259898" lon="15.5090741"><ele>316.0</ele><time>2026-04-08T13:27:52.01Z</time></trkpt><trkpt lat="38.2260418" lon="15.5090182"><ele>316.0</ele><time>2026-04-08T13:27:56.011Z</time></trkpt><trkpt lat="38.2260853" lon="15.5089271"><ele>316.0</ele><time>2026-04-08T13:28:00.01Z</time></trkpt><trkpt lat="38.226123" lon="15.5088205"><ele>316.0</ele><time>2026-04-08T13:28:03.011Z</time></trkpt><trkpt lat="38.2261632" lon="15.5087329"><ele>316.0</ele><time>2026-04-08T13:28:05.011Z</time></trkpt><trkpt lat="38.2262221" lon="15.508656"><ele>316.0</ele><time>2026-04-08T13:28:07.01Z</time></trkpt><trkpt lat="38.2262589" lon="15.5085889"><ele>312.0</ele><time>2026-04-08T13:28:09.011Z</time></trkpt><trkpt lat="38.2263019" lon="15.5085204"><ele>312.0</ele><time>2026-04-08T13:28:11.01Z</time></trkpt><trkpt lat="38.2263547" lon="15.5084589"><ele>312.0</ele><time>2026-04-08T13:28:17.01Z</time></trkpt><trkpt lat="38.2264148" lon="15.5084312"><ele>312.0</ele><time>2026-04-08T13:28:21.01Z</time></trkpt></trkseg></trk></gpx>